createdAt,value
2023-03-01T00:00:48.045Z,85.96
2023-03-01T00:01:44.647Z,85.94
2023-03-01T00:02:41.403Z,86.28
2023-03-01T00:03:38.458Z,86.07
2023-03-01T00:04:36.758Z,86.55
2023-03-01T00:05:33.441Z,86.68
2023-03-01T00:06:30.376Z,86.93
2023-03-01T00:07:27.098Z,86.74
2023-03-01T00:08:25.956Z,86.51
2023-03-01T00:09:23.165Z,86.52
2023-03-01T00:10:19.739Z,86.73
2023-03-01T00:11:42.690Z,87.15
2023-03-01T00:12:39.362Z,86.90
2023-03-01T00:13:36.828Z,87.06
2023-03-01T00:14:33.618Z,86.21
2023-03-01T00:15:31.780Z,85.32
2023-03-01T00:16:40.621Z,84.62
2023-03-01T00:17:37.401Z,84.33
2023-03-01T00:18:34.652Z,84.11
2023-03-01T00:19:31.423Z,83.69
2023-03-01T00:20:28.168Z,84.00
2023-03-01T00:21:25.852Z,84.00
2023-03-01T00:22:22.576Z,83.84
2023-03-01T00:23:19.646Z,83.88
2023-03-01T00:24:16.969Z,83.33
2023-03-01T00:25:13.611Z,84.08
2023-03-01T00:26:13.530Z,84.04
2023-03-01T00:27:10.250Z,84.60
2023-03-01T00:28:06.882Z,84.69
2023-03-01T00:29:03.514Z,85.29
2023-03-01T00:30:00.167Z,85.18
2023-03-01T00:30:57.027Z,84.62
2023-03-01T00:31:53.714Z,83.87
2023-03-01T00:32:50.316Z,84.19
2023-03-01T00:33:47.333Z,83.49
2023-03-01T00:34:43.992Z,83.49
2023-03-01T00:35:40.741Z,83.09
2023-03-01T00:36:38.164Z,83.20
2023-03-01T00:37:34.765Z,83.86
2023-03-01T00:38:31.959Z,83.82
2023-03-01T00:39:28.663Z,83.11
2023-03-01T00:40:26.431Z,82.81
2023-03-01T00:41:24.716Z,83.40
2023-03-01T00:42:21.424Z,83.07
2023-03-01T00:43:18.084Z,83.57
2023-03-01T00:44:14.821Z,83.19
2023-03-01T00:45:11.650Z,83.54
2023-03-01T00:46:11.448Z,83.19
2023-03-01T00:47:08.115Z,83.16
2023-03-01T00:48:06.164Z,82.96
2023-03-01T00:49:03.346Z,82.14
2023-03-01T00:49:59.938Z,82.48
2023-03-01T00:50:56.579Z,82.42
2023-03-01T00:51:53.254Z,82.35
2023-03-01T00:52:54.152Z,82.43
2023-03-01T00:54:00.333Z,82.38
2023-03-01T00:54:57.000Z,82.08
2023-03-01T00:55:53.548Z,81.76
2023-03-01T00:56:50.203Z,82.12
2023-03-01T00:57:46.813Z,82.68
2023-03-01T00:58:43.509Z,82.24
2023-03-01T00:59:40.082Z,82.54
2023-03-01T01:00:37.002Z,82.20
2023-03-01T01:01:33.736Z,81.83
2023-03-01T01:02:30.402Z,82.66
2023-03-01T01:03:27.383Z,82.81
2023-03-01T01:04:24.129Z,82.63
2023-03-01T01:05:22.007Z,82.76
2023-03-01T01:06:21.211Z,82.68
2023-03-01T01:07:18.237Z,82.49
2023-03-01T01:08:14.850Z,82.69
2023-03-01T01:09:19.221Z,82.36
2023-03-01T01:10:21.794Z,82.63
2023-03-01T01:11:20.774Z,82.99
2023-03-01T01:12:17.487Z,83.21
2023-03-01T01:13:14.598Z,82.90
2023-03-01T01:14:11.265Z,82.08
2023-03-01T01:15:08.491Z,82.30
2023-03-01T01:16:05.837Z,81.93
2023-03-01T01:17:02.656Z,82.29
2023-03-01T01:17:59.211Z,81.96
2023-03-01T01:18:57.152Z,81.47
2023-03-01T01:19:53.766Z,82.30
2023-03-01T01:20:50.344Z,82.12
2023-03-01T01:21:47.798Z,81.13
2023-03-01T01:22:44.559Z,81.12
2023-03-01T01:23:42.449Z,81.48
2023-03-01T01:24:39.053Z,81.50
2023-03-01T01:25:37.906Z,81.65
2023-03-01T01:26:35.524Z,80.95
2023-03-01T01:27:32.120Z,81.12
2023-03-01T01:28:28.767Z,81.67
2023-03-01T01:29:25.529Z,82.27
2023-03-01T01:30:22.123Z,82.35
2023-03-01T01:31:19.146Z,81.54
2023-03-01T01:32:15.926Z,82.17
2023-03-01T01:33:12.574Z,82.80
2023-03-01T01:34:15.549Z,82.84
2023-03-01T01:35:12.142Z,82.14
2023-03-01T01:36:09.698Z,82.08
2023-03-01T01:37:08.899Z,81.55
2023-03-01T01:38:05.631Z,81.03
2023-03-01T01:39:02.709Z,81.23
2023-03-01T01:40:00.469Z,81.46
2023-03-01T01:40:57.317Z,81.75
2023-03-01T01:41:54.021Z,81.69
2023-03-01T01:42:50.572Z,81.68
2023-03-01T01:44:25.784Z,82.08
2023-03-01T01:45:31.378Z,82.31
2023-03-01T01:46:37.308Z,82.66
2023-03-01T01:47:33.936Z,82.31
2023-03-01T01:48:41.406Z,81.94
2023-03-01T01:49:44.694Z,81.45
2023-03-01T01:50:42.291Z,81.33
2023-03-01T01:51:43.023Z,80.75
2023-03-01T01:52:39.674Z,81.25
2023-03-01T01:53:37.333Z,81.37
2023-03-01T01:54:46.829Z,81.71
2023-03-01T01:55:48.381Z,81.89
2023-03-01T01:56:51.602Z,82.95
2023-03-01T01:57:55.846Z,83.19
2023-03-01T01:58:53.247Z,82.47
2023-03-01T01:59:55.366Z,82.19
2023-03-01T02:00:52.026Z,82.11
2023-03-01T02:01:48.612Z,82.25
2023-03-01T02:02:48.042Z,82.19
2023-03-01T02:03:47.566Z,82.21
2023-03-01T02:04:44.289Z,81.87
2023-03-01T02:05:46.807Z,82.61
2023-03-01T02:06:54.198Z,82.97
2023-03-01T02:07:51.443Z,83.10
2023-03-01T02:08:50.642Z,83.60
2023-03-01T02:09:50.325Z,83.15
2023-03-01T02:10:49.207Z,82.99
2023-03-01T02:11:45.827Z,82.85
2023-03-01T02:12:43.058Z,82.68
2023-03-01T02:13:39.797Z,82.89
2023-03-01T02:14:36.499Z,82.94
2023-03-01T02:15:35.474Z,82.71
2023-03-01T02:16:33.093Z,82.65
2023-03-01T02:17:30.754Z,83.17
2023-03-01T02:18:27.631Z,83.19
2023-03-01T02:19:52.138Z,82.76
2023-03-01T02:21:00.696Z,82.38
2023-03-01T02:22:04.900Z,82.88
2023-03-01T02:23:01.846Z,82.95
2023-03-01T02:24:05.153Z,82.59
2023-03-01T02:25:19.700Z,83.25
2023-03-01T02:26:32.599Z,83.88
2023-03-01T02:27:39.394Z,83.92
2023-03-01T02:28:41.338Z,84.05
2023-03-01T02:29:37.962Z,84.38
2023-03-01T02:30:35.190Z,84.38
2023-03-01T02:31:44.138Z,84.74
2023-03-01T02:32:42.772Z,84.08
2023-03-01T02:33:40.770Z,84.00
2023-03-01T02:34:37.420Z,83.72
2023-03-01T02:35:40.357Z,83.44
2023-03-01T02:36:50.134Z,83.30
2023-03-01T02:37:49.006Z,82.90
2023-03-01T02:38:47.089Z,82.89
2023-03-01T02:39:49.315Z,82.98
2023-03-01T02:40:46.390Z,82.84
2023-03-01T02:41:49.850Z,82.78
2023-03-01T02:42:56.973Z,82.39
2023-03-01T02:43:53.820Z,82.00
2023-03-01T02:44:51.192Z,82.33
2023-03-01T02:45:53.740Z,82.54
2023-03-01T02:46:53.556Z,83.12
2023-03-01T02:47:50.771Z,82.59
2023-03-01T02:48:50.575Z,82.24
2023-03-01T02:49:47.265Z,82.01
2023-03-01T02:51:28.261Z,81.43
2023-03-01T02:52:43.367Z,81.09
2023-03-01T02:53:47.079Z,81.10
2023-03-01T02:54:58.556Z,81.64
2023-03-01T02:55:55.190Z,81.74
2023-03-01T02:56:52.806Z,81.54
2023-03-01T02:57:52.617Z,82.08
2023-03-01T02:58:52.603Z,81.70
2023-03-01T02:59:51.070Z,82.12
2023-03-01T03:00:50.432Z,82.15
2023-03-01T03:01:47.532Z,81.71
2023-03-01T03:02:44.289Z,81.59
2023-03-01T03:03:41.052Z,82.01
2023-03-01T03:04:37.650Z,81.75
2023-03-01T03:05:35.389Z,81.73
2023-03-01T03:06:32.414Z,81.75
2023-03-01T03:07:29.141Z,81.84
2023-03-01T03:08:25.728Z,81.24
2023-03-01T03:09:22.530Z,81.59
2023-03-01T03:10:24.776Z,82.65
2023-03-01T03:11:21.912Z,82.94
2023-03-01T03:12:18.461Z,82.24
2023-03-01T03:13:15.458Z,82.06
2023-03-01T03:14:14.525Z,82.44
2023-03-01T03:15:13.851Z,82.16
2023-03-01T03:16:10.558Z,82.70
2023-03-01T03:17:07.656Z,82.90
2023-03-01T03:18:07.001Z,82.36
2023-03-01T03:19:05.927Z,82.97
2023-03-01T03:20:05.004Z,83.04
2023-03-01T03:21:01.641Z,83.18
2023-03-01T03:21:58.550Z,82.88
2023-03-01T03:22:59.280Z,82.41
2023-03-01T03:23:58.324Z,82.79
2023-03-01T03:24:55.841Z,83.20
2023-03-01T03:25:52.748Z,83.17
2023-03-01T03:26:49.304Z,83.06
2023-03-01T03:27:48.210Z,83.48
2023-03-01T03:28:44.833Z,83.07
2023-03-01T03:29:41.399Z,83.31
2023-03-01T03:30:40.793Z,83.73
2023-03-01T03:31:37.530Z,83.88
2023-03-01T03:32:34.240Z,83.31
2023-03-01T03:33:32.294Z,83.72
2023-03-01T03:34:28.879Z,83.36
2023-03-01T03:35:34.305Z,83.59
2023-03-01T03:36:31.092Z,83.63
2023-03-01T03:37:46.348Z,83.79
2023-03-01T03:38:42.980Z,83.83
2023-03-01T03:39:39.564Z,83.43
2023-03-01T03:40:39.332Z,83.36
2023-03-01T03:41:36.168Z,83.37
2023-03-01T03:42:32.705Z,83.68
2023-03-01T03:43:31.096Z,83.77
2023-03-01T03:44:46.189Z,84.11
2023-03-01T03:45:45.396Z,84.01
2023-03-01T03:47:00.396Z,84.00
2023-03-01T03:47:57.091Z,83.05
2023-03-01T03:48:53.730Z,82.97
2023-03-01T03:49:50.297Z,82.80
2023-03-01T03:50:52.655Z,83.20
2023-03-01T03:51:49.288Z,83.55
2023-03-01T03:52:45.962Z,84.59
2023-03-01T03:53:43.474Z,84.73
2023-03-01T03:54:42.972Z,84.22
2023-03-01T03:55:40.304Z,83.97
2023-03-01T03:56:38.737Z,83.55
2023-03-01T03:57:36.852Z,83.20
2023-03-01T03:58:33.576Z,84.08
2023-03-01T03:59:30.176Z,84.57
2023-03-01T04:00:26.867Z,84.16
2023-03-01T04:01:23.599Z,84.42
2023-03-01T04:02:23.236Z,84.76
2023-03-01T04:03:21.050Z,84.46
2023-03-01T04:04:19.967Z,84.37
2023-03-01T04:05:19.105Z,84.62
2023-03-01T04:06:16.033Z,84.55
2023-03-01T04:07:12.584Z,84.80
2023-03-01T04:08:09.909Z,85.44
2023-03-01T04:09:06.521Z,84.97
2023-03-01T04:10:04.697Z,85.38
2023-03-01T04:11:22.258Z,85.17
2023-03-01T04:12:23.979Z,85.23
2023-03-01T04:13:23.728Z,84.76
2023-03-01T04:14:20.324Z,84.18
2023-03-01T04:15:16.981Z,84.19
2023-03-01T04:16:13.657Z,84.51
2023-03-01T04:17:10.391Z,85.35
2023-03-01T04:18:08.138Z,85.65
2023-03-01T04:19:07.335Z,85.62
2023-03-01T04:20:06.655Z,85.54
2023-03-01T04:21:03.296Z,85.27
2023-03-01T04:21:59.967Z,85.58
2023-03-01T04:23:11.561Z,86.22
2023-03-01T04:24:09.920Z,86.58
2023-03-01T04:25:07.322Z,86.29
2023-03-01T04:26:04.144Z,86.09
2023-03-01T04:27:00.781Z,86.49
2023-03-01T04:27:57.426Z,86.34
2023-03-01T04:28:54.126Z,86.08
2023-03-01T04:29:50.771Z,86.01
2023-03-01T04:30:47.484Z,85.10
2023-03-01T04:31:44.384Z,85.01
2023-03-01T04:32:41.179Z,85.36
2023-03-01T04:33:37.813Z,85.49
2023-03-01T04:34:34.406Z,85.06
2023-03-01T04:35:32.181Z,84.34
2023-03-01T04:36:31.063Z,84.10
2023-03-01T04:37:28.594Z,83.62
2023-03-01T04:38:25.185Z,83.72
2023-03-01T04:39:22.116Z,83.63
2023-03-01T04:40:18.718Z,83.91
2023-03-01T04:41:17.799Z,84.29
2023-03-01T04:42:15.969Z,84.03
2023-03-01T04:43:15.606Z,83.98
2023-03-01T04:44:12.478Z,84.94
2023-03-01T04:45:14.157Z,84.67
2023-03-01T04:46:16.363Z,84.54
2023-03-01T04:47:13.697Z,83.63
2023-03-01T04:48:10.398Z,83.67
2023-03-01T04:49:07.008Z,83.48
2023-03-01T04:50:04.763Z,83.69
2023-03-01T04:51:01.778Z,84.07
2023-03-01T04:52:03.119Z,83.91
2023-03-01T04:52:59.777Z,83.59
2023-03-01T04:53:56.513Z,84.25
2023-03-01T04:54:53.096Z,83.71
2023-03-01T04:55:49.725Z,83.83
2023-03-01T04:56:46.292Z,83.90
2023-03-01T04:57:42.889Z,83.58
2023-03-01T04:58:39.513Z,83.38
2023-03-01T04:59:37.232Z,83.18
2023-03-01T05:00:33.847Z,82.93
2023-03-01T05:01:30.436Z,82.66
2023-03-01T05:02:27.300Z,82.45
2023-03-01T05:03:24.063Z,82.68
2023-03-01T05:04:20.627Z,83.05
2023-03-01T05:05:17.221Z,83.51
2023-03-01T05:06:14.923Z,83.55
2023-03-01T05:07:14.060Z,82.63
2023-03-01T05:08:18.415Z,82.42
2023-03-01T05:09:15.020Z,82.33
2023-03-01T05:10:11.685Z,82.54
2023-03-01T05:11:12.177Z,82.58
2023-03-01T05:12:08.796Z,82.72
2023-03-01T05:13:05.375Z,81.93
2023-03-01T05:14:02.573Z,81.76
2023-03-01T05:14:59.528Z,81.88
2023-03-01T05:15:58.276Z,82.03
2023-03-01T05:16:54.902Z,81.94
2023-03-01T05:17:51.537Z,81.73
2023-03-01T05:18:48.109Z,81.54
2023-03-01T05:19:44.708Z,80.95
2023-03-01T05:20:41.323Z,81.27
2023-03-01T05:22:01.121Z,81.56
2023-03-01T05:23:00.427Z,82.54
2023-03-01T05:23:57.021Z,82.21
2023-03-01T05:24:55.054Z,81.71
2023-03-01T05:25:53.351Z,81.94
2023-03-01T05:26:50.069Z,81.89
2023-03-01T05:27:46.685Z,81.59
2023-03-01T05:28:43.231Z,81.17
2023-03-01T05:29:40.549Z,81.01
2023-03-01T05:30:37.517Z,81.01
2023-03-01T05:31:34.069Z,81.30
2023-03-01T05:32:33.086Z,81.07
2023-03-01T05:33:29.726Z,81.13
2023-03-01T05:34:28.717Z,81.38
2023-03-01T05:35:25.658Z,81.14
2023-03-01T05:36:22.599Z,80.21
2023-03-01T05:37:20.469Z,80.60
2023-03-01T05:38:17.699Z,80.38
2023-03-01T05:39:14.265Z,80.49
2023-03-01T05:40:16.660Z,80.56
2023-03-01T05:41:17.854Z,80.38
2023-03-01T05:42:14.407Z,80.59
2023-03-01T05:43:11.630Z,80.59
2023-03-01T05:44:08.335Z,80.58
2023-03-01T05:45:05.226Z,80.77
2023-03-01T05:46:02.152Z,80.71
2023-03-01T05:46:58.765Z,80.50
2023-03-01T05:47:56.215Z,80.92
2023-03-01T05:48:52.833Z,80.71
2023-03-01T05:49:51.240Z,80.19
2023-03-01T05:50:48.657Z,80.19
2023-03-01T05:51:50.313Z,80.04
2023-03-01T05:52:52.226Z,80.10
2023-03-01T05:53:48.849Z,79.43
2023-03-01T05:54:45.510Z,79.21
2023-03-01T05:55:43.651Z,79.81
2023-03-01T05:56:40.214Z,79.58
2023-03-01T05:57:36.794Z,79.32
2023-03-01T05:58:33.456Z,79.70
2023-03-01T05:59:30.035Z,79.19
2023-03-01T06:00:26.759Z,78.96
2023-03-01T06:01:23.369Z,78.53
2023-03-01T06:02:19.952Z,79.55
2023-03-01T06:03:18.625Z,79.17
2023-03-01T06:04:15.256Z,78.86
2023-03-01T06:05:14.149Z,79.24
2023-03-01T06:06:10.852Z,80.04
2023-03-01T06:07:07.450Z,79.74
2023-03-01T06:08:04.398Z,79.72
2023-03-01T06:09:01.036Z,79.49
2023-03-01T06:09:57.657Z,79.32
2023-03-01T06:10:54.688Z,79.40
2023-03-01T06:11:51.335Z,79.40
2023-03-01T06:12:48.147Z,79.46
2023-03-01T06:13:45.956Z,79.74
2023-03-01T06:14:42.555Z,79.95
2023-03-01T06:15:39.214Z,80.01
2023-03-01T06:16:35.843Z,79.88
2023-03-01T06:17:38.394Z,79.70
2023-03-01T06:18:35.119Z,79.35
2023-03-01T06:19:31.816Z,79.12
2023-03-01T06:20:32.991Z,78.41
2023-03-01T06:21:29.616Z,78.38
2023-03-01T06:22:26.604Z,77.86
2023-03-01T06:23:24.890Z,78.41
2023-03-01T06:24:21.464Z,79.00
2023-03-01T06:25:24.081Z,78.89
2023-03-01T06:26:20.764Z,78.96
2023-03-01T06:27:17.463Z,78.57
2023-03-01T06:28:14.158Z,77.77
2023-03-01T06:29:10.878Z,77.35
2023-03-01T06:30:11.662Z,76.75
2023-03-01T06:31:09.954Z,77.64
2023-03-01T06:32:06.842Z,78.05
2023-03-01T06:33:04.180Z,78.54
2023-03-01T06:34:00.877Z,78.41
2023-03-01T06:34:57.696Z,77.79
2023-03-01T06:35:57.598Z,77.70
2023-03-01T06:36:54.375Z,78.58
2023-03-01T06:37:51.022Z,78.08
2023-03-01T06:38:47.802Z,78.23
2023-03-01T06:39:44.413Z,78.50
2023-03-01T06:40:40.962Z,77.60
2023-03-01T06:41:37.541Z,77.58
2023-03-01T06:42:34.100Z,77.32
2023-03-01T06:43:30.695Z,77.62
2023-03-01T06:44:27.873Z,77.81
2023-03-01T06:45:25.427Z,77.83
2023-03-01T06:46:22.638Z,77.60
2023-03-01T06:47:19.265Z,77.76
2023-03-01T06:48:16.273Z,77.70
2023-03-01T06:49:12.852Z,77.80
2023-03-01T06:50:10.177Z,77.43
2023-03-01T06:51:06.884Z,77.73
2023-03-01T06:52:03.652Z,77.65
2023-03-01T06:53:00.572Z,77.87
2023-03-01T06:53:57.174Z,77.50
2023-03-01T06:54:54.036Z,77.34
2023-03-01T06:55:58.317Z,77.51
2023-03-01T06:56:54.942Z,77.64
2023-03-01T06:57:58.678Z,77.11
2023-03-01T06:58:55.283Z,76.59
2023-03-01T06:59:51.882Z,76.03
2023-03-01T07:00:48.534Z,75.56
2023-03-01T07:01:45.203Z,75.90
2023-03-01T07:02:41.930Z,76.75
2023-03-01T07:03:38.563Z,76.13
2023-03-01T07:04:35.250Z,76.16
2023-03-01T07:05:31.974Z,76.34
2023-03-01T07:06:28.799Z,75.90
2023-03-01T07:07:25.476Z,75.43
2023-03-01T07:08:22.024Z,75.45
2023-03-01T07:09:20.822Z,75.20
2023-03-01T07:10:17.559Z,75.65
2023-03-01T07:11:14.485Z,75.50
2023-03-01T07:12:11.358Z,75.24
2023-03-01T07:13:08.062Z,74.75
2023-03-01T07:14:04.708Z,74.18
2023-03-01T07:15:01.294Z,74.10
2023-03-01T07:15:58.025Z,74.52
2023-03-01T07:16:55.222Z,74.94
2023-03-01T07:17:52.154Z,75.42
2023-03-01T07:18:48.742Z,75.33
2023-03-01T07:19:48.107Z,74.74
2023-03-01T07:20:44.697Z,75.41
2023-03-01T07:21:41.380Z,76.18
2023-03-01T07:22:41.305Z,75.82
2023-03-01T07:23:37.909Z,75.67
2023-03-01T07:24:34.983Z,75.96
2023-03-01T07:25:31.669Z,75.42
2023-03-01T07:26:28.465Z,75.46
2023-03-01T07:27:25.281Z,74.67
2023-03-01T07:28:24.427Z,74.72
2023-03-01T07:29:21.045Z,75.42
2023-03-01T07:30:17.939Z,75.44
2023-03-01T07:31:15.795Z,75.22
2023-03-01T07:32:12.820Z,74.97
2023-03-01T07:33:09.465Z,74.65
2023-03-01T07:34:06.109Z,74.37
2023-03-01T07:35:02.819Z,73.55
2023-03-01T07:36:01.582Z,74.29
2023-03-01T07:36:58.308Z,73.18
2023-03-01T07:37:55.032Z,73.08
2023-03-01T07:38:52.136Z,74.43
2023-03-01T07:39:48.694Z,74.30
2023-03-01T07:40:45.303Z,74.78
2023-03-01T07:41:41.922Z,74.78
2023-03-01T07:42:39.250Z,74.27
2023-03-01T07:43:35.858Z,74.42
2023-03-01T07:44:32.985Z,74.44
2023-03-01T07:45:30.385Z,74.38
2023-03-01T07:46:27.072Z,75.24
2023-03-01T07:47:23.736Z,75.51
2023-03-01T07:48:20.400Z,75.09
2023-03-01T07:49:17.029Z,74.56
2023-03-01T07:50:14.657Z,74.99
2023-03-01T07:51:11.820Z,75.24
2023-03-01T07:52:11.913Z,75.62
2023-03-01T07:53:09.358Z,75.67
2023-03-01T07:54:06.228Z,75.48
2023-03-01T07:55:02.887Z,76.14
2023-03-01T07:56:10.761Z,75.78
2023-03-01T07:57:07.472Z,75.92
2023-03-01T07:58:04.511Z,75.88
2023-03-01T07:59:01.324Z,75.93
2023-03-01T07:59:58.035Z,76.50
2023-03-01T08:00:54.641Z,77.17
2023-03-01T08:01:51.363Z,76.98
2023-03-01T08:02:48.082Z,75.71
2023-03-01T08:03:45.269Z,76.35
2023-03-01T08:04:43.312Z,76.78
2023-03-01T08:05:39.875Z,76.08
2023-03-01T08:06:37.066Z,74.82
2023-03-01T08:07:34.191Z,74.06
2023-03-01T08:08:30.909Z,74.79
2023-03-01T08:09:27.529Z,75.33
2023-03-01T08:10:24.120Z,75.27
2023-03-01T08:11:21.036Z,75.00
2023-03-01T08:12:17.968Z,74.77
2023-03-01T08:13:14.738Z,73.94
2023-03-01T08:14:14.171Z,73.29
2023-03-01T08:15:11.393Z,73.64
2023-03-01T08:16:17.315Z,74.37
2023-03-01T08:17:17.169Z,74.92
2023-03-01T08:18:13.769Z,73.88
2023-03-01T08:19:12.993Z,73.98
2023-03-01T08:20:13.514Z,74.57
2023-03-01T08:21:13.130Z,75.22
2023-03-01T08:22:09.758Z,75.82
2023-03-01T08:23:06.371Z,76.38
2023-03-01T08:24:04.779Z,76.21
2023-03-01T08:25:01.468Z,75.20
2023-03-01T08:26:14.136Z,74.48
2023-03-01T08:27:11.309Z,74.13
2023-03-01T08:28:07.890Z,74.61
2023-03-01T08:29:04.557Z,74.61
2023-03-01T08:30:01.300Z,76.10
2023-03-01T08:30:57.866Z,76.49
2023-03-01T08:31:54.563Z,76.87
2023-03-01T08:32:51.658Z,76.50
2023-03-01T08:33:51.800Z,76.22
2023-03-01T08:34:49.202Z,75.26
2023-03-01T08:35:45.877Z,75.06
2023-03-01T08:36:44.959Z,75.36
2023-03-01T08:37:41.554Z,75.96
2023-03-01T08:38:38.142Z,76.39
2023-03-01T08:39:34.788Z,76.47
2023-03-01T08:40:31.437Z,76.52
2023-03-01T08:41:28.710Z,77.78
2023-03-01T08:42:25.385Z,78.03
2023-03-01T08:43:22.864Z,78.22
2023-03-01T08:44:20.897Z,77.56
2023-03-01T08:45:19.506Z,76.99
2023-03-01T08:46:16.326Z,78.25
2023-03-01T08:47:13.050Z,78.85
2023-03-01T08:48:09.647Z,78.05
2023-03-01T08:49:08.210Z,77.67
2023-03-01T08:50:05.952Z,78.18
2023-03-01T08:51:16.852Z,77.24
2023-03-01T08:52:13.470Z,76.88
2023-03-01T08:53:10.113Z,76.42
2023-03-01T08:54:17.694Z,77.43
2023-03-01T08:55:16.067Z,77.81
2023-03-01T08:56:13.247Z,77.17
2023-03-01T08:57:10.753Z,76.12
2023-03-01T08:58:07.345Z,76.12
2023-03-01T08:59:04.500Z,76.26
2023-03-01T09:00:01.116Z,75.93
2023-03-01T09:00:57.768Z,76.17
2023-03-01T09:01:54.427Z,76.48
2023-03-01T09:02:51.062Z,76.31
2023-03-01T09:03:48.043Z,76.95
2023-03-01T09:04:45.360Z,77.52
2023-03-01T09:05:41.946Z,77.22
2023-03-01T09:06:38.697Z,77.11
2023-03-01T09:07:35.317Z,78.07
2023-03-01T09:08:35.213Z,77.78
2023-03-01T09:09:31.906Z,78.14
2023-03-01T09:10:28.571Z,77.47
2023-03-01T09:11:25.340Z,77.46
2023-03-01T09:12:25.181Z,76.55
2023-03-01T09:13:24.754Z,78.23
2023-03-01T09:14:21.383Z,77.96
2023-03-01T09:15:17.943Z,77.42
2023-03-01T09:16:17.678Z,78.15
2023-03-01T09:17:14.334Z,77.84
2023-03-01T09:18:10.930Z,77.19
2023-03-01T09:19:07.621Z,75.80
2023-03-01T09:20:06.837Z,76.31
2023-03-01T09:21:11.401Z,75.58
2023-03-01T09:22:08.086Z,76.66
2023-03-01T09:23:04.763Z,77.80
2023-03-01T09:24:01.394Z,77.85
2023-03-01T09:25:00.305Z,77.52
2023-03-01T09:25:56.958Z,77.74
2023-03-01T09:26:58.030Z,77.41
2023-03-01T09:27:55.741Z,77.71
2023-03-01T09:28:55.902Z,77.08
2023-03-01T09:29:52.488Z,76.23
2023-03-01T09:30:49.229Z,75.82
2023-03-01T09:31:45.907Z,76.48
2023-03-01T09:32:43.685Z,76.88
2023-03-01T09:33:41.736Z,77.61
2023-03-01T09:34:58.290Z,78.32
2023-03-01T09:36:02.335Z,78.13
2023-03-01T09:36:59.488Z,76.89
2023-03-01T09:37:56.123Z,77.84
2023-03-01T09:38:53.979Z,77.99
2023-03-01T09:39:50.668Z,77.75
2023-03-01T09:40:47.612Z,76.85
2023-03-01T09:42:00.809Z,77.22
2023-03-01T09:43:04.273Z,77.39
2023-03-01T09:44:09.061Z,77.28
2023-03-01T09:45:24.589Z,76.82
2023-03-01T09:46:24.679Z,75.23
2023-03-01T09:47:24.650Z,75.16
2023-03-01T09:48:25.217Z,75.20
2023-03-01T09:49:34.469Z,76.01
2023-03-01T09:50:42.072Z,76.65
2023-03-01T09:51:41.316Z,75.55
2023-03-01T09:52:41.027Z,75.11
2023-03-01T09:53:38.019Z,75.23
2023-03-01T09:54:34.858Z,74.77
2023-03-01T09:55:46.225Z,74.19
2023-03-01T09:56:54.905Z,73.77
2023-03-01T09:58:02.712Z,73.15
2023-03-01T09:59:05.304Z,74.33
2023-03-01T10:00:27.107Z,75.29
2023-03-01T10:01:30.660Z,75.35
2023-03-01T10:02:46.028Z,75.80
2023-03-01T10:04:07.584Z,75.17
2023-03-01T10:05:33.332Z,73.29
2023-03-01T10:06:35.319Z,74.31
2023-03-01T10:07:53.833Z,75.20
2023-03-01T10:08:58.819Z,75.44
2023-03-01T10:09:55.676Z,75.57
2023-03-01T10:10:53.545Z,74.84
2023-03-01T10:11:55.017Z,74.54
2023-03-01T10:12:52.325Z,73.96
2023-03-01T10:13:53.884Z,73.58
2023-03-01T10:15:22.977Z,74.93
2023-03-01T10:16:31.513Z,74.54
2023-03-01T10:17:47.994Z,75.36
2023-03-01T10:18:50.816Z,74.86
2023-03-01T10:19:48.146Z,75.28
2023-03-01T10:20:58.303Z,75.11
2023-03-01T10:21:58.180Z,75.17
2023-03-01T10:22:56.275Z,75.77
2023-03-01T10:23:54.459Z,74.55
2023-03-01T10:24:52.713Z,73.78
2023-03-01T10:26:09.337Z,74.06
2023-03-01T10:27:13.277Z,74.29
2023-03-01T10:28:32.484Z,73.27
2023-03-01T10:29:40.737Z,73.54
2023-03-01T10:30:43.078Z,72.51
2023-03-01T10:31:42.162Z,73.41
2023-03-01T10:32:39.161Z,74.51
2023-03-01T10:33:40.657Z,74.50
2023-03-01T10:34:38.463Z,74.81
2023-03-01T10:35:35.421Z,73.12
2023-03-01T10:36:34.200Z,72.90
2023-03-01T10:37:30.916Z,72.31
2023-03-01T10:38:30.664Z,72.70
2023-03-01T10:39:27.443Z,73.32
2023-03-01T10:40:24.065Z,73.57
2023-03-01T10:41:24.421Z,73.78
2023-03-01T10:42:30.310Z,72.49
2023-03-01T10:43:33.093Z,73.16
2023-03-01T10:44:47.352Z,72.69
2023-03-01T10:45:44.282Z,71.77
2023-03-01T10:46:40.954Z,71.24
2023-03-01T10:47:37.664Z,72.31
2023-03-01T10:48:34.661Z,74.91
2023-03-01T10:49:31.460Z,75.71
2023-03-01T10:50:28.124Z,74.64
2023-03-01T10:51:24.762Z,73.92
2023-03-01T10:52:25.323Z,72.86
2023-03-01T10:53:33.546Z,72.53
2023-03-01T10:54:32.981Z,72.99
2023-03-01T10:55:40.728Z,72.06
2023-03-01T10:57:00.782Z,72.62
2023-03-01T10:58:22.116Z,71.58
2023-03-01T10:59:31.317Z,72.47
2023-03-01T11:00:28.898Z,72.45
2023-03-01T11:01:36.898Z,72.22
2023-03-01T11:02:35.053Z,73.45
2023-03-01T11:03:35.231Z,72.55
2023-03-01T11:04:31.966Z,70.90
2023-03-01T11:05:34.207Z,71.58
2023-03-01T11:06:30.901Z,72.20
2023-03-01T11:07:28.133Z,72.32
2023-03-01T11:08:45.742Z,72.23
2023-03-01T11:09:42.347Z,72.08
2023-03-01T11:10:38.897Z,72.82
2023-03-01T11:11:36.122Z,71.63
2023-03-01T11:12:33.764Z,72.70
2023-03-01T11:13:30.443Z,73.84
2023-03-01T11:14:31.656Z,73.37
2023-03-01T11:15:29.993Z,73.93
2023-03-01T11:16:28.982Z,74.60
2023-03-01T11:17:34.694Z,73.14
2023-03-01T11:18:47.078Z,72.40
2023-03-01T11:20:02.901Z,72.40
2023-03-01T11:21:01.976Z,72.17
2023-03-01T11:22:20.929Z,71.90
2023-03-01T11:23:18.470Z,71.03
2023-03-01T11:24:18.486Z,71.36
2023-03-01T11:25:16.235Z,71.01
2023-03-01T11:26:16.454Z,71.97
2023-03-01T11:27:33.645Z,71.28
2023-03-01T11:28:31.266Z,71.77
2023-03-01T11:29:47.697Z,72.69
2023-03-01T11:31:07.101Z,72.51
2023-03-01T11:32:09.988Z,72.21
2023-03-01T11:33:09.550Z,71.63
2023-03-01T11:34:15.991Z,70.99
2023-03-01T11:35:23.905Z,71.10
2023-03-01T11:36:29.692Z,71.81
2023-03-01T11:37:35.280Z,71.18
2023-03-01T11:38:36.191Z,71.47
2023-03-01T11:39:46.464Z,70.82
2023-03-01T11:40:48.370Z,70.47
2023-03-01T11:41:53.236Z,71.89
2023-03-01T11:43:11.812Z,72.59
2023-03-01T11:44:19.131Z,72.34
2023-03-01T11:45:15.953Z,71.53
2023-03-01T11:46:33.798Z,71.58
2023-03-01T11:47:42.853Z,72.29
2023-03-01T11:49:03.931Z,71.36
2023-03-01T11:50:09.825Z,72.02
2023-03-01T11:51:13.947Z,72.51
2023-03-01T11:52:33.837Z,72.15
2023-03-01T11:53:57.841Z,71.40
2023-03-01T11:55:13.687Z,72.05
2023-03-01T11:56:23.865Z,71.18
2023-03-01T11:57:53.172Z,70.83
2023-03-01T11:59:11.126Z,70.87
2023-03-01T12:00:23.397Z,71.35
2023-03-01T12:01:19.999Z,73.35
2023-03-01T12:02:37.838Z,72.21
2023-03-01T12:04:11.378Z,70.97
2023-03-01T12:05:17.584Z,70.92
2023-03-01T12:06:34.786Z,72.45
2023-03-01T12:07:34.408Z,72.20
2023-03-01T12:08:51.341Z,72.19
2023-03-01T12:09:59.206Z,72.23
2023-03-01T12:11:19.458Z,73.45
2023-03-01T12:12:58.022Z,72.97
2023-03-01T12:14:13.356Z,72.95
2023-03-01T12:15:31.001Z,71.85
2023-03-01T12:16:39.475Z,72.08
2023-03-01T12:18:12.761Z,73.71
2023-03-01T12:19:35.329Z,74.71
2023-03-01T12:20:32.071Z,75.28
2023-03-01T12:22:25.734Z,75.66
2023-03-01T12:23:49.968Z,75.04
2023-03-01T12:25:15.865Z,76.25
2023-03-01T12:26:35.484Z,75.23
2023-03-01T12:27:59.066Z,74.80
2023-03-01T12:29:04.703Z,73.90
2023-03-01T12:30:49.208Z,75.45
2023-03-01T12:31:58.039Z,75.22
2023-03-01T12:33:30.592Z,74.35
2023-03-01T12:35:02.635Z,74.98
2023-03-01T12:36:34.523Z,75.35
2023-03-01T12:37:55.272Z,74.55
2023-03-01T12:39:08.602Z,74.48
2023-03-01T12:40:37.479Z,74.79
2023-03-01T12:42:11.306Z,74.82
2023-03-01T12:43:39.295Z,73.17
2023-03-01T12:44:45.096Z,73.69
2023-03-01T12:45:49.841Z,74.09
2023-03-01T12:47:16.667Z,74.46
2023-03-01T12:48:40.680Z,72.76
2023-03-01T12:49:43.266Z,72.38
2023-03-01T12:50:50.132Z,73.29
2023-03-01T12:52:02.823Z,73.07
2023-03-01T12:52:59.936Z,72.93
2023-03-01T12:53:59.781Z,72.59
2023-03-01T12:55:02.185Z,71.72
2023-03-01T12:56:13.124Z,72.14
2023-03-01T12:57:20.046Z,71.66
2023-03-01T12:58:16.614Z,71.84
2023-03-01T12:59:20.727Z,71.25
2023-03-01T13:00:38.081Z,71.98
2023-03-01T13:01:44.286Z,72.20
2023-03-01T13:02:50.103Z,70.98